Thurman, IA (51654)

8:56 PM CDT on August 21, 2014 (GMT -0500)
North Side of Town | Change Station
CLOSE
Current Station
Personal Weather Station
Location: Thurman, IA
Elevation: 1007 ft
Nearby Weather Stations

Elev 1007 ft 40.82 °N, 95.75 °W | Updated 41 seconds ago

Clear
Clear
81.4 °F
Feels Like 88 °F
N
0.0
Wind Variable Wind from SSE
Gusts 3.0 mph

Today
High -- | Low -- °F
--% Chance of Precip.
Yesterday
High -- | Low -- °F
Precip. -- in
6:39 AM 8:12 PM
Waning Crescent, 11% visible
Pressure 29.85 in
Visibility 10.0 miles
Clouds Clear
Heat Index 88 °F
Dew Point 76 °F
Humidity 85%
Rainfall 0.11 in
Snow Depth Not available.
UV 0 out of 12
Pollen 8.00 out of 12
Air Quality Not available.
Flu Activity Not available.
METAR KPMV 220135Z AUTO 09004KT 10SM CLR 27/24 A2985 RMK AO2 LTG DSNT W T02730236

More Conditions Fewer Conditions

Pressure 29.85 in
Visibility 10.0 miles
Clouds Clear
Heat Index 88 °F
Dew Point 76 °F
Humidity 85%
Rainfall 0.11 in
Snow Depth Not available.
UV 0 out of 12
Pollen 8.00 out of 12
Air Quality Not available.
Flu Activity Not available.
METAR KPMV 220135Z AUTO 09004KT 10SM CLR 27/24 A2985 RMK AO2 LTG DSNT W T02730236

More Conditions Fewer Conditions

10-Day Weather Forecast

Almanac

Astronomy

Aug. 21, 2014 Rise Set
Actual Time 6:39 AM CDT 8:12 PM CDT
Civil Twilight 6:10 AM CDT 8:41 PM CDT
Nautical Twilight 5:35 AM CDT 9:16 PM CDT
Astronomical Twilight 4:58 AM CDT 9:53 PM CDT
Moon 3:09 AM CDT (8/21) 5:42 PM CDT (8/21)
Length of Visible Light 14h 31m
Length of Day
13h 33m
Tomorrow will be 2m 29s shorter.
Waning Crescent, 11% of the Moon is Illuminated
Today
Waning Crescent
Aug 25
New
Sep 2
First Quarter
Sep 8
Full
Sep 15
Last Quarter

Today's Extremes

State Highs State Lows

Community

WunderPhotos

Upload Photos

1,746,105 photos uploaded!

WunderBlogs® & News

Nearby

Snow Depth

Station Depth Elevation
No new snow has been reported.

Earthquake Activity

City Distance Mag. Time & Date
No recent earthquake activity has been reported nearby.
Minimum magnitude displayed is 2.5.

Coastal Water Temperatures

Place Temperature
No Stations Reporting

Nearby Weather Stations